createdAt,value
2019-05-02T00:03:58.608Z,20.83
2019-05-02T00:09:09.264Z,20.73
2019-05-02T00:14:13.073Z,20.30
2019-05-02T00:19:18.497Z,20.13
2019-05-02T00:24:24.083Z,20.30
2019-05-02T00:29:29.643Z,19.50
2019-05-02T00:34:35.011Z,18.53
2019-05-02T00:39:40.208Z,18.33
2019-05-02T00:44:47.037Z,19.27
2019-05-02T00:49:52.499Z,19.27
2019-05-02T00:54:58.714Z,20.17
2019-05-02T01:00:07.859Z,19.57
2019-05-02T01:05:13.803Z,19.30
2019-05-02T01:10:21.295Z,18.83
2019-05-02T01:15:26.348Z,18.27
2019-05-02T01:20:31.605Z,18.10
2019-05-02T01:25:36.833Z,16.93
2019-05-02T01:30:44.171Z,17.40
2019-05-02T01:35:51.057Z,16.27
2019-05-02T01:40:56.520Z,16.70
2019-05-02T01:46:02.192Z,16.17
2019-05-02T01:51:10.411Z,16.37
2019-05-02T01:56:14.482Z,15.13
2019-05-02T02:01:21.428Z,14.30
2019-05-02T02:06:26.692Z,14.00
2019-05-02T02:11:34.028Z,13.60
2019-05-02T02:16:40.472Z,12.93
2019-05-02T02:21:47.703Z,12.23
2019-05-02T02:26:53.045Z,13.07
2019-05-02T02:31:58.514Z,11.73
2019-05-02T02:37:05.394Z,11.87
2019-05-02T02:42:10.692Z,11.37
2019-05-02T02:47:18.815Z,10.43
2019-05-02T02:52:23.226Z,9.87
2019-05-02T02:57:28.673Z,10.27
2019-05-02T03:02:34.135Z,8.90
2019-05-02T03:07:39.608Z,9.60
2019-05-02T03:13:03.290Z,8.67
2019-05-02T03:18:08.740Z,8.50
2019-05-02T03:23:15.005Z,8.03
2019-05-02T03:28:21.182Z,8.80
2019-05-02T03:33:26.781Z,8.65
2019-05-02T03:38:35.056Z,8.87
2019-05-02T03:43:39.303Z,9.00
2019-05-02T03:48:44.655Z,8.90
2019-05-02T03:53:51.019Z,8.97
2019-05-02T03:58:58.198Z,10.07
2019-05-02T04:04:04.759Z,7.63
2019-05-02T04:09:13.304Z,8.50
2019-05-02T04:14:36.588Z,9.03
2019-05-02T04:19:28.673Z,8.90
2019-05-02T04:24:34.081Z,8.00
2019-05-02T04:29:39.628Z,8.80
2019-05-02T04:34:48.945Z,7.90
2019-05-02T04:39:53.848Z,8.57
2019-05-02T04:45:14.181Z,7.17
2019-05-02T04:50:17.540Z,7.13
2019-05-02T04:55:22.982Z,6.93
2019-05-02T05:00:29.117Z,6.30
2019-05-02T05:05:34.762Z,5.97
2019-05-02T05:10:41.465Z,6.07
2019-05-02T05:15:51.310Z,5.53
2019-05-02T05:20:54.309Z,5.80
2019-05-02T05:26:03.252Z,5.27
2019-05-02T05:31:07.669Z,5.47
2019-05-02T05:36:13.062Z,5.33
2019-05-02T05:41:22.877Z,5.10
2019-05-02T05:46:27.775Z,5.03
2019-05-02T05:51:33.543Z,4.73
2019-05-02T05:56:42.897Z,5.13
2019-05-02T06:01:47.963Z,4.93
2019-05-02T06:06:54.120Z,4.63
2019-05-02T06:12:00.487Z,4.87
2019-05-02T06:17:05.890Z,4.67
2019-05-02T06:22:11.333Z,5.60
2019-05-02T06:27:20.938Z,5.70
2019-05-02T06:32:23.547Z,5.20
2019-05-02T06:37:28.606Z,5.30
2019-05-02T06:42:34.632Z,4.57
2019-05-02T06:47:42.082Z,5.17
2019-05-02T06:52:47.892Z,5.30
2019-05-02T06:57:57.138Z,5.30
2019-05-02T07:03:00.032Z,6.47
2019-05-02T07:08:06.457Z,6.07
2019-05-02T07:13:15.164Z,5.67
2019-05-02T07:18:23.907Z,5.77
2019-05-02T07:23:29.230Z,5.70
2019-05-02T07:28:34.700Z,5.43
2019-05-02T07:33:39.944Z,6.47
2019-05-02T07:38:45.108Z,4.93
2019-05-02T07:43:52.119Z,5.27
2019-05-02T07:48:57.627Z,4.60
2019-05-02T07:54:02.923Z,5.20
2019-05-02T07:59:09.225Z,4.73
2019-05-02T08:04:14.425Z,4.50
2019-05-02T08:09:19.735Z,4.67
2019-05-02T08:14:29.167Z,4.10
2019-05-02T08:19:31.785Z,3.60
2019-05-02T08:24:37.835Z,3.87
2019-05-02T08:29:44.066Z,3.80
2019-05-02T08:34:51.995Z,4.20
2019-05-02T08:39:56.527Z,3.80
2019-05-02T08:45:03.143Z,4.10
2019-05-02T08:50:10.306Z,3.83
2019-05-02T08:55:15.479Z,3.67
2019-05-02T09:00:20.848Z,3.40
2019-05-02T09:05:26.482Z,3.23
2019-05-02T09:10:31.693Z,4.40
2019-05-02T09:15:40.391Z,3.93
2019-05-02T09:20:46.921Z,4.10
2019-05-02T09:25:51.962Z,3.80
2019-05-02T09:31:02.025Z,3.50
2019-05-02T09:36:04.240Z,3.23
2019-05-02T09:41:16.967Z,3.00
2019-05-02T09:46:16.792Z,2.77
2019-05-02T09:51:22.284Z,2.70
2019-05-02T09:56:27.857Z,3.00
2019-05-02T10:01:34.913Z,2.70
2019-05-02T10:06:42.383Z,2.60
2019-05-02T10:11:47.679Z,2.63
2019-05-02T10:16:53.185Z,2.63
2019-05-02T10:21:58.348Z,2.50
2019-05-02T10:27:08.358Z,3.00
2019-05-02T10:32:13.045Z,3.30
2019-05-02T10:37:17.446Z,3.20
2019-05-02T10:42:22.728Z,3.97
2019-05-02T10:47:27.993Z,3.50
2019-05-02T10:52:34.202Z,4.00
2019-05-02T10:57:41.942Z,3.53
2019-05-02T11:03:04.990Z,4.10
2019-05-02T11:08:12.022Z,4.00
2019-05-02T11:13:21.875Z,4.27
2019-05-02T11:18:41.995Z,4.63
2019-05-02T11:23:39.276Z,4.10
2019-05-02T11:28:44.790Z,4.13
2019-05-02T11:33:52.507Z,6.63
2019-05-02T11:39:05.357Z,6.23
2019-05-02T11:44:07.710Z,6.17
2019-05-02T11:49:13.143Z,4.10
2019-05-02T11:54:18.705Z,4.03
2019-05-02T11:59:28.073Z,3.70
2019-05-02T12:04:32.607Z,4.33
2019-05-02T12:09:37.838Z,3.53
2019-05-02T12:14:43.253Z,4.30
2019-05-02T12:19:48.889Z,4.03
2019-05-02T12:24:54.263Z,4.20
2019-05-02T12:29:59.470Z,4.03
2019-05-02T12:35:05.930Z,4.20
2019-05-02T12:40:12.285Z,4.00
2019-05-02T12:45:17.916Z,3.77
2019-05-02T12:50:23.391Z,3.60
2019-05-02T12:55:28.751Z,3.93
2019-05-02T13:00:34.043Z,2.98
2019-05-02T13:05:39.266Z,3.67
2019-05-02T13:11:02.314Z,2.87
2019-05-02T13:16:06.109Z,2.80
2019-05-02T13:21:16.821Z,3.50
2019-05-02T13:26:26.888Z,3.70
2019-05-02T13:31:42.560Z,4.13
2019-05-02T13:36:51.806Z,3.77
2019-05-02T13:41:56.979Z,5.40
2019-05-02T13:47:02.806Z,4.43
2019-05-02T13:52:08.744Z,3.07
2019-05-02T13:57:13.962Z,6.50
2019-05-02T14:02:42.838Z,3.20
2019-05-02T14:08:05.911Z,2.97
2019-05-02T14:13:12.479Z,2.70
2019-05-02T14:18:21.955Z,3.10
2019-05-02T14:23:26.679Z,2.70
2019-05-02T14:28:36.244Z,2.17
2019-05-02T14:33:42.362Z,2.50
2019-05-02T14:38:47.528Z,2.10
2019-05-02T14:43:54.114Z,2.00
2019-05-02T14:48:59.824Z,2.57
2019-05-02T14:54:08.319Z,1.77
2019-05-02T14:59:19.782Z,2.40
2019-05-02T15:04:22.978Z,2.10
2019-05-02T15:09:28.463Z,2.50
2019-05-02T15:14:35.421Z,2.57
2019-05-02T15:19:42.764Z,2.33
2019-05-02T15:24:48.086Z,2.50
2019-05-02T15:30:01.015Z,2.37
2019-05-02T15:35:23.055Z,3.30
2019-05-02T15:45:36.603Z,2.00
2019-05-02T15:50:51.661Z,1.90
2019-05-02T15:55:49.950Z,4.70
2019-05-02T16:00:56.506Z,2.10
2019-05-02T16:06:02.955Z,2.17
2019-05-02T16:11:08.817Z,2.17
2019-05-02T16:16:14.612Z,2.00
2019-05-02T16:21:29.016Z,2.40
2019-05-02T16:26:29.248Z,7.67
2019-05-02T16:31:36.470Z,7.70
2019-05-02T16:36:41.999Z,3.47
2019-05-02T16:41:49.275Z,5.03
2019-05-02T16:46:54.442Z,3.40
2019-05-02T16:52:04.955Z,3.67
2019-05-02T16:57:07.145Z,2.63
2019-05-02T17:02:12.709Z,2.60
2019-05-02T17:07:19.554Z,2.50
2019-05-02T17:12:25.120Z,2.80
2019-05-02T17:17:33.251Z,4.67
2019-05-02T17:22:37.388Z,4.43
2019-05-02T17:27:42.619Z,3.17
2019-05-02T17:32:47.903Z,3.10
2019-05-02T17:37:53.837Z,5.47
2019-05-02T17:43:02.771Z,2.93
2019-05-02T17:48:09.956Z,4.63
2019-05-02T17:53:14.002Z,5.00
2019-05-02T17:58:19.450Z,15.73
2019-05-02T18:03:31.015Z,3.60
2019-05-02T18:08:32.329Z,3.37
2019-05-02T18:13:37.772Z,4.47
2019-05-02T18:18:46.632Z,3.20
2019-05-02T18:23:51.920Z,6.13
2019-05-02T18:29:02.896Z,4.77
2019-05-02T18:34:04.168Z,5.53
2019-05-02T18:39:09.412Z,16.63
2019-05-02T18:44:17.477Z,10.00
2019-05-02T18:49:23.668Z,10.77
2019-05-02T18:54:29.052Z,8.30
2019-05-02T18:59:34.925Z,8.50
2019-05-02T19:04:42.204Z,9.60
2019-05-02T19:09:50.979Z,7.73
2019-05-02T19:14:57.553Z,27.90
2019-05-02T19:20:01.423Z,5.93
2019-05-02T19:25:06.917Z,5.03
2019-05-02T19:30:13.606Z,9.78
2019-05-02T19:35:19.039Z,8.80
2019-05-02T19:40:28.196Z,8.40
2019-05-02T19:45:33.516Z,6.40
2019-05-02T19:50:43.694Z,5.90
2019-05-02T19:55:47.450Z,19.87
2019-05-02T20:00:52.737Z,16.10
2019-05-02T20:06:02.568Z,8.10
2019-05-02T20:11:04.694Z,6.83
2019-05-02T20:16:23.035Z,6.90
2019-05-02T20:21:32.905Z,7.20
2019-05-02T20:26:38.290Z,5.07
2019-05-02T20:31:43.684Z,5.70
2019-05-02T20:36:49.327Z,4.03
2019-05-02T20:41:54.447Z,6.50
2019-05-02T20:46:59.869Z,5.70
2019-05-02T20:52:05.243Z,4.40
2019-05-02T20:57:11.978Z,5.27
2019-05-02T21:02:18.191Z,4.63
2019-05-02T21:07:25.018Z,4.00
2019-05-02T21:12:30.519Z,3.80
2019-05-02T21:17:35.927Z,4.70
2019-05-02T21:22:42.218Z,5.00
2019-05-02T21:27:47.530Z,5.13
2019-05-02T21:32:53.816Z,5.17
2019-05-02T21:37:59.080Z,5.43
2019-05-02T21:43:04.759Z,6.80
2019-05-02T21:48:10.224Z,5.37
2019-05-02T21:53:17.102Z,6.03
2019-05-02T21:58:22.495Z,4.90
2019-05-02T22:03:27.766Z,5.03
2019-05-02T22:08:33.116Z,5.60
2019-05-02T22:13:38.222Z,6.13
2019-05-02T22:18:43.836Z,6.30
2019-05-02T22:23:52.035Z,7.27
2019-05-02T22:28:57.489Z,4.87
2019-05-02T22:34:02.894Z,6.07
2019-05-02T22:39:28.134Z,4.53
2019-05-02T22:44:33.560Z,3.17
2019-05-02T22:49:38.923Z,3.43
2019-05-02T22:54:44.390Z,3.33
2019-05-02T22:59:51.515Z,3.77
2019-05-02T23:04:56.533Z,3.30
2019-05-02T23:10:02.245Z,3.67
2019-05-02T23:15:08.890Z,3.70
2019-05-02T23:20:14.524Z,3.53
2019-05-02T23:25:39.157Z,3.43
2019-05-02T23:30:44.696Z,3.15
2019-05-02T23:35:52.062Z,3.43
2019-05-02T23:40:56.889Z,2.90
2019-05-02T23:46:02.340Z,3.03
2019-05-02T23:51:07.557Z,3.23
2019-05-02T23:56:13.261Z,2.47
